| time (UTC) | temp C | wind direction | speed KPH | gust KPH | rain 1hr cm | rain 24hr cm | rain mn cm | humidity % | barometer mb |
| 20260505171037 | 23 | 204 | 6.4 | 9.7 | 0.25 | 5.74 | 2.26 | 32 | |
| 20260505170244 | 23 | 257 | 6.4 | 9.7 | 0.25 | 5.74 | 2.26 | 34 | |
| 20260505165143 | 23 | 215 | 4.8 | 4.8 | 0.25 | 5.74 | 2.26 | 34 | |
| 20260505164113 | 22 | 202 | 6.4 | 8.0 | 0.25 | 5.74 | 2.26 | 34 | |
| 20260505163043 | 22 | 211 | 4.8 | 6.4 | 0.00 | 5.51 | 2.01 | 34 | |
| 20260505162136 | 22 | 229 | 4.8 | 8.0 | 0.00 | 5.51 | 2.01 | 33 | |
| 20260505161118 | 22 | 266 | 4.8 | 8.0 | 0.00 | 5.51 | 2.01 | 34 | |
| 20260505153052 | 21 | 137 | 3.2 | 4.8 | 0.51 | 5.51 | 2.01 | 38 | |
| 20260505152145 | 21 | 222 | 4.8 | 8.0 | 0.51 | 5.51 | 2.01 | 38 | |
| 20260505151023 | 21 | 220 | 3.2 | 4.8 | 0.51 | 5.51 | 2.01 | 39 | |
| 20260505140240 | 18 | 242 | 3.2 | 4.8 | 0.25 | 5.00 | 1.50 | 46 | |
| 20260505130226 | 16 | 163 | 1.6 | 1.6 | 0.00 | 5.00 | 1.24 | 63 | |
| 20260505124447 | 14 | 0.0 | 0.0 | 0.00 | 5.00 | 1.24 | 67 | ||
| 20260505123254 | 13 | 0.0 | 0.0 | 0.00 | 5.00 | 1.24 | 69 | ||
| 20260505122255 | 13 | 0.0 | 0.0 | 0.00 | 5.00 | 1.24 | 71 | ||
| 20260505121020 | 12 | 0.0 | 0.0 | 0.00 | 5.00 | 1.24 | 73 | ||
| 20260505120053 | 11 | 0.0 | 0.0 | 0.00 | 5.00 | 1.24 | 75 | ||
| 20260505115508 | 11 | 0.0 | 0.0 | 0.00 | 5.00 | 1.24 | 76 | ||
| 20260505114024 | 10 | 0.0 | 0.0 | 0.00 | 5.00 | 1.24 | 75 | ||
| 20260505113057 | 10 | 0.0 | 0.0 | 0.00 | 5.00 | 1.24 | 76 | ||
| 20260505112407 | 10 | 0.0 | 0.0 | 0.00 | 5.00 | 1.24 | 76 | ||
| 20260505111440 | 10 | 0.0 | 0.0 | 0.00 | 5.00 | 1.24 | 75 | ||
| 20260505102200 | 10 | 0.0 | 0.0 | 0.25 | 5.00 | 1.24 | 72 | ||
| 20260505101037 | 10 | 0.0 | 0.0 | 0.25 | 5.00 | 1.24 | 72 | ||
| 20260505100728 | 10 | 0.0 | 0.0 | 0.25 | 5.00 | 1.24 | 72 | ||
| 20260505095627 | 10 | 83 | 1.6 | 1.6 | 0.51 | 5.00 | 1.24 | 72 | |
| 20260505094042 | 10 | 81 | 1.6 | 1.6 | 0.51 | 5.00 | 1.24 | 71 | |
| 20260505093218 | 11 | 0.0 | 0.0 | 0.25 | 4.75 | 0.99 | 69 | ||
| 20260505091602 | 11 | 0.0 | 0.0 | 0.25 | 5.00 | 0.99 | 67 | ||
| 20260505090809 | 11 | 0.0 | 0.0 | 0.25 | 5.00 | 0.99 | 67 | ||
| 20260505085707 | 11 | 0.0 | 0.0 | 0.25 | 5.00 | 0.99 | 66 | ||
| 20260505084812 | 11 | 0.0 | 0.0 | 0.00 | 4.75 | 0.76 | 64 | ||
| 20260505083916 | 12 | 0.0 | 0.0 | 0.00 | 4.75 | 0.76 | 64 | ||
| 20260505082712 | 12 | 0.0 | 0.0 | 0.00 | 4.75 | 0.76 | 63 | ||
| 20260505081848 | -17 | 0.0 | 0.0 | 0.00 | 4.75 | 0.76 | |||
| 20260505080747 | -17 | 0.0 | 0.0 | 0.00 | 4.75 | 0.76 | |||
| 20260505075646 | -17 | 0.0 | 0.0 | 0.00 | 5.00 | 0.76 | |||
| 20260505075130 | 12 | 0.0 | 0.0 | 0.25 | 5.00 | 0.76 | 59 | ||
| 20260505073307 | 13 | 0.0 | 0.0 | 0.25 | 5.00 | 0.76 | 57 | ||
| 20260505072258 | 14 | 103 | 0.0 | 1.6 | 0.25 | 5.00 | 0.76 | 55 | |
| 20260505071104 | 15 | 0.0 | 0.0 | 0.25 | 5.00 | 0.76 | 54 | ||
| 20260505070210 | 15 | 0.0 | 0.0 | 0.25 | 5.00 | 0.76 | 54 | ||
| 20260505065345 | 16 | 288 | 1.6 | 3.2 | 0.51 | 5.00 | 0.76 | 53 | |
| 20260505064037 | 16 | 262 | 1.6 | 3.2 | 0.25 | 4.75 | 0.51 | 52 | |
| 20260505063317 | 16 | 242 | 1.6 | 3.2 | 0.25 | 4.75 | 0.51 | 52 | |
| 20260505062410 | 16 | 243 | 3.2 | 3.2 | 0.25 | 5.26 | 0.51 | 52 | |
| 20260505061102 | 16 | 255 | 3.2 | 4.8 | 0.25 | 5.26 | 0.51 | 52 | |
| 20260505060115 | 16 | 248 | 3.2 | 4.8 | 0.25 | 5.51 | 0.51 | 52 | |
| 20260505055322 | 16 | 263 | 3.2 | 3.2 | 0.25 | 5.26 | 0.25 | 51 | |
| 20260505054047 | 17 | 282 | 3.2 | 3.2 | 0.25 | 5.26 | 0.25 | 50 | |
| 20260505053048 | -17 | 0.0 | 0.0 | 0.25 | 5.26 | 0.25 | |||
| 20260505052050 | 17 | 283 | 3.2 | 4.8 | 0.25 | 5.26 | 0.25 | 50 | |
| 20260505051021 | 17 | 247 | 3.2 | 4.8 | 0.25 | 5.26 | 0.25 | 50 | |
| 20260505050124 | 17 | 257 | 3.2 | 4.8 | 0.25 | 5.26 | 0.25 | 50 | |
| 20260505041029 | 17 | 239 | 3.2 | 3.2 | 0.25 | 5.00 | 0.00 | 48 | |
| 20260505040030 | 17 | 265 | 1.6 | 3.2 | 0.51 | 5.00 | 0.00 | 48 | |
| 20260505035032 | 17 | 253 | 1.6 | 3.2 | 0.25 | 4.75 | 4.75 | 47 | |
| 20260505034034 | 17 | 179 | 1.6 | 3.2 | 0.25 | 4.75 | 4.75 | 47 | |
| 20260505033436 | 17 | 254 | 1.6 | 3.2 | 0.25 | 4.75 | 4.75 | 46 | |
| 20260505032057 | 18 | 263 | 1.6 | 3.2 | 0.25 | 4.75 | 4.75 | 45 | |
| 20260505031141 | 18 | 184 | 0.0 | 1.6 | 0.51 | 4.75 | 4.75 | 44 | |
| 20260505030059 | 18 | 253 | 0.0 | 1.6 | 0.25 | 4.50 | 4.50 | 43 | |
| 20260505025112 | 18 | 255 | 0.0 | 1.6 | 0.25 | 4.50 | 4.50 | 43 | |
| 20260505024146 | 19 | 231 | 1.6 | 1.6 | 0.25 | 4.50 | 4.50 | 42 | |
| 20260505023209 | 19 | 251 | 4.8 | 8.0 | 0.25 | 4.50 | 4.50 | 42 | |
| 20260505022046 | 19 | 253 | 6.4 | 9.7 | 0.25 | 4.50 | 4.50 | 42 | |
| 20260505021047 | 20 | 266 | 3.2 | 6.4 | 0.00 | 4.50 | 4.24 | 42 | |
| 20260505020050 | 20 | 267 | 6.4 | 9.7 | 0.00 | 4.50 | 4.24 | 43 | |
| 20260505015050 | 19 | 227 | 3.2 | 3.2 | 0.00 | 4.50 | 4.24 | 44 | |
| 20260505014124 | 20 | 267 | 4.8 | 8.0 | 0.00 | 4.50 | 4.24 | 45 | |
| 20260505013042 | 19 | 258 | 3.2 | 8.0 | 0.00 | 4.50 | 4.24 | 45 | |
| 20260505012126 | 19 | 220 | 1.6 | 1.6 | 0.00 | 4.50 | 4.24 | 44 | |
| 20260505011128 | 20 | 252 | 1.6 | 3.2 | 0.00 | 4.50 | 4.24 | 43 | |
| 20260505010510 | 20 | 269 | 1.6 | 4.8 | 0.00 | 4.50 | 4.24 | 41 | |
| 20260505005048 | 20 | 270 | 1.6 | 1.6 | 0.00 | 4.50 | 4.24 | 40 | |
| 20260505004246 | 20 | 174 | 1.6 | 3.2 | 0.00 | 4.75 | 4.24 | 40 | |
| 20260505003141 | 21 | 266 | 3.2 | 4.8 | 0.25 | 4.75 | 4.24 | 39 | |
| 20260505002310 | 21 | 232 | 4.8 | 4.8 | 0.51 | 4.75 | 4.24 | 37 | |
| 20260505001343 | 21 | 254 | 1.6 | 3.2 | 0.51 | 4.75 | 4.24 | 37 | |
| 20260505000241 | 22 | 268 | 4.8 | 6.4 | 0.51 | 5.00 | 4.24 | 37 | |
| 20260504235140 | 22 | 262 | 4.8 | 8.0 | 1.24 | 5.00 | 4.24 | 36 | |
| 20260504234110 | 22 | 224 | 4.8 | 8.0 | 1.50 | 5.00 | 4.24 | 36 | |
| 20260504233041 | 22 | 234 | 3.2 | 3.2 | 1.50 | 4.75 | 3.99 | 35 | |
| 20260504232113 | 22 | 239 | 4.8 | 6.4 | 1.24 | 4.50 | 3.76 | 34 | |
| 20260504231103 | 23 | 252 | 3.2 | 4.8 | 1.50 | 4.50 | 3.76 | 33 | |
| 20260504230105 | 23 | 257 | 4.8 | 8.0 | 1.50 | 4.50 | 3.76 | 32 | |
| 20260504225046 | 23 | 276 | 3.2 | 8.0 | 0.76 | 3.99 | 3.00 | 32 | |
| 20260504224151 | 23 | 277 | 4.8 | 6.4 | 0.51 | 3.99 | 2.74 | 31 | |
| 20260504223223 | 23 | 256 | 3.2 | 4.8 | 0.25 | 3.76 | 2.49 | 30 | |
| 20260504222019 | 23 | 213 | 8.0 | 11.3 | 0.25 | 3.99 | 2.49 | 29 | |
| 20260504221021 | 24 | 211 | 6.4 | 9.7 | 0.00 | 3.76 | 2.26 | 28 | |
| 20260504220022 | 25 | 231 | 4.8 | 8.0 | 0.51 | 3.76 | 2.26 | 26 | |
| 20260504215023 | 25 | 215 | 4.8 | 8.0 | 0.51 | 3.76 | 2.26 | 25 | |
| 20260504214027 | 26 | 247 | 4.8 | 6.4 | 0.51 | 3.76 | 2.26 | 24 | |
| 20260504213135 | 26 | 265 | 6.4 | 11.3 | 0.51 | 3.76 | 2.26 | 24 | |
| 20260504212029 | 27 | 245 | 4.8 | 8.0 | 0.51 | 3.76 | 2.26 | 24 | |
| 20260504211031 | 26 | 221 | 4.8 | 8.0 | 0.51 | 3.76 | 2.26 | 24 | |
| 20260504210032 | 26 | 236 | 6.4 | 9.7 | 0.00 | 3.25 | 1.75 | 25 | |
| 20260504205033 | 26 | 217 | 6.4 | 9.7 | 0.00 | 3.25 | 1.75 | 25 | |
| 20260504204055 | 26 | 282 | 6.4 | 12.9 | 0.00 | 3.25 | 1.75 | 25 | |
| 20260504203107 | 27 | 238 | 4.8 | 8.0 | 0.00 | 3.25 | 1.75 | 25 | |
| 20260504202129 | 26 | 243 | 6.4 | 9.7 | 0.00 | 3.25 | 1.75 | 26 | |
| 20260504201039 | 26 | 206 | 6.4 | 9.7 | 0.25 | 3.25 | 1.75 | 26 | |
| 20260504200111 | 26 | 299 | 4.8 | 6.4 | 0.25 | 3.25 | 1.75 | 27 | |
| 20260504195113 | 26 | 240 | 4.8 | 6.4 | 0.25 | 3.25 | 1.75 | 27 | |
| 20260504194043 | 26 | 165 | 6.4 | 8.0 | 0.25 | 3.25 | 1.75 | 27 | |
| 20260504193045 | 26 | 197 | 6.4 | 8.0 | 0.25 | 3.25 | 1.75 | 27 | |
| 20260504192046 | 25 | 132 | 3.2 | 6.4 | 0.25 | 3.25 | 1.75 | 27 | |
| 20260504191048 | 25 | 248 | 4.8 | 6.4 | 0.00 | 3.00 | 1.50 | 28 | |
| 20260504190050 | 26 | 234 | 4.8 | 8.0 | 0.00 | 3.00 | 1.50 | 28 | |
| 20260504185021 | 25 | 259 | 6.4 | 9.7 | 0.00 | 3.00 | 1.50 | 28 | |
| 20260504184021 | 25 | 264 | 8.0 | 9.7 | 0.00 | 3.00 | 1.50 | 28 | |
| 20260504183022 | 24 | 276 | 6.4 | 9.7 | 0.00 | 3.00 | 1.50 | 29 | |
| 20260504182104 | 24 | 213 | 8.0 | 9.7 | 0.00 | 3.00 | 1.50 | 29 | |
| 20260504181129 | 23 | 257 | 6.4 | 9.7 | 0.00 | 3.25 | 1.50 | 30 | |
| 20260504180030 | 23 | 264 | 6.4 | 8.0 | 0.00 | 3.25 | 1.50 | 30 | |
| 20260504175031 | 23 | 266 | 6.4 | 6.4 | 0.00 | 3.51 | 1.50 | 30 | |
| 20260504174030 | 23 | 272 | 8.0 | 8.0 | 0.00 | 3.51 | 1.50 | 30 | |
| 20260504173309 | 23 | 262 | 6.4 | 9.7 | 0.00 | 3.51 | 1.50 | 31 | |
| 20260504172033 | 23 | 208 | 6.4 | 11.3 | 0.00 | 3.51 | 1.50 | 31 |